createdAt,value
2023-04-08T00:00:43.579Z,1.15
2023-04-08T00:05:45.104Z,0.88
2023-04-08T00:10:46.646Z,1.15
2023-04-08T00:15:48.774Z,0.80
2023-04-08T00:20:50.603Z,0.93
2023-04-08T00:25:52.104Z,1.05
2023-04-08T00:30:53.705Z,1.17
2023-04-08T00:35:55.391Z,0.85
2023-04-08T00:40:56.947Z,0.93
2023-04-08T00:45:58.903Z,1.10
2023-04-08T00:51:00.590Z,1.00
2023-04-08T00:56:02.097Z,0.85
2023-04-08T01:01:06.287Z,1.10
2023-04-08T01:06:16.150Z,0.80
2023-04-08T01:11:17.879Z,0.82
2023-04-08T01:16:19.829Z,1.17
2023-04-08T01:21:22.146Z,1.10
2023-04-08T01:26:26.571Z,0.82
2023-04-08T01:31:28.409Z,0.80
2023-04-08T01:36:32.710Z,0.85
2023-04-08T01:41:36.195Z,0.95
2023-04-08T01:46:39.163Z,0.90
2023-04-08T01:51:41.198Z,1.33
2023-04-08T01:56:43.870Z,0.75
2023-04-08T02:01:45.615Z,1.10
2023-04-08T02:06:47.250Z,0.82
2023-04-08T02:11:48.747Z,0.70
2023-04-08T02:16:52.529Z,1.13
2023-04-08T02:21:56.141Z,1.02
2023-04-08T02:26:58.665Z,0.75
2023-04-08T02:32:01.533Z,0.90
2023-04-08T02:37:03.355Z,0.77
2023-04-08T02:42:05.384Z,0.82
2023-04-08T02:47:07.220Z,0.77
2023-04-08T02:52:08.684Z,0.77
2023-04-08T02:57:10.235Z,0.98
2023-04-08T03:02:11.813Z,1.20
2023-04-08T03:07:13.365Z,0.80
2023-04-08T03:12:14.850Z,0.90
2023-04-08T03:17:16.525Z,0.73
2023-04-08T03:22:17.991Z,0.90
2023-04-08T03:27:19.449Z,1.05
2023-04-08T03:32:21.060Z,0.82
2023-04-08T03:37:22.687Z,0.75
2023-04-08T03:42:24.244Z,0.95
2023-04-08T03:47:25.817Z,0.93
2023-04-08T03:52:27.314Z,1.05
2023-04-08T03:57:28.798Z,1.23
2023-04-08T04:02:30.491Z,0.85
2023-04-08T04:07:32.060Z,0.80
2023-04-08T04:12:33.567Z,0.85
2023-04-08T04:17:35.097Z,0.95
2023-04-08T04:22:36.704Z,0.77
2023-04-08T04:27:38.181Z,0.80
2023-04-08T04:32:39.672Z,0.90
2023-04-08T04:37:41.681Z,0.70
2023-04-08T04:42:43.166Z,1.10
2023-04-08T04:47:44.661Z,0.75
2023-04-08T04:52:46.537Z,1.00
2023-04-08T04:57:48.832Z,0.60
2023-04-08T05:02:50.484Z,0.65
2023-04-08T05:07:52.106Z,0.73
2023-04-08T05:12:53.571Z,0.77
2023-04-08T05:17:55.038Z,0.90
2023-04-08T05:22:56.540Z,1.05
2023-04-08T05:27:58.026Z,0.60
2023-04-08T05:33:00.579Z,0.82
2023-04-08T05:38:02.414Z,0.65
2023-04-08T05:43:03.938Z,0.93
2023-04-08T05:48:05.553Z,0.75
2023-04-08T05:53:07.032Z,0.82
2023-04-08T05:58:08.818Z,0.63
2023-04-08T06:03:10.858Z,0.90
2023-04-08T06:08:12.485Z,0.70
2023-04-08T06:13:13.928Z,0.93
2023-04-08T06:18:16.402Z,0.70
2023-04-08T06:23:17.863Z,0.93
2023-04-08T06:28:19.410Z,1.73
2023-04-08T06:33:20.959Z,0.95
2023-04-08T06:38:22.417Z,0.55
2023-04-08T06:43:24.090Z,0.85
2023-04-08T06:48:28.889Z,1.08
2023-04-08T06:53:31.258Z,1.02
2023-04-08T06:58:32.748Z,0.98
2023-04-08T07:03:34.317Z,0.93
2023-04-08T07:08:36.535Z,1.05
2023-04-08T07:13:38.100Z,0.70
2023-04-08T07:18:41.476Z,0.80
2023-04-08T07:23:42.970Z,0.70
2023-04-08T07:28:44.508Z,0.65
2023-04-08T07:33:46.278Z,0.90
2023-04-08T07:38:47.979Z,1.30
2023-04-08T07:43:49.779Z,0.73
2023-04-08T07:48:52.243Z,0.77
2023-04-08T07:53:53.930Z,0.95
2023-04-08T07:58:55.713Z,0.75
2023-04-08T08:03:57.877Z,0.75
2023-04-08T08:09:00.414Z,0.75
2023-04-08T08:14:02.032Z,0.70
2023-04-08T08:19:07.381Z,0.63
2023-04-08T08:24:08.895Z,0.57
2023-04-08T08:29:10.389Z,0.68
2023-04-08T08:34:11.882Z,0.73
2023-04-08T08:39:13.387Z,0.75
2023-04-08T08:44:15.096Z,0.75
2023-04-08T08:49:16.634Z,0.60
2023-04-08T08:54:18.204Z,0.85
2023-04-08T08:59:19.812Z,0.52
2023-04-08T09:04:22.839Z,0.50
2023-04-08T09:09:25.633Z,0.50
2023-04-08T09:14:27.173Z,0.30
2023-04-08T09:19:28.738Z,0.65
2023-04-08T09:24:31.150Z,0.73
2023-04-08T09:29:35.264Z,0.90
2023-04-08T09:34:38.175Z,0.63
2023-04-08T09:39:39.679Z,0.90
2023-04-08T09:44:43.556Z,0.40
2023-04-08T09:49:46.989Z,0.30
2023-04-08T09:54:51.437Z,0.40
2023-04-08T09:59:57.901Z,0.65
2023-04-08T10:05:00.364Z,0.60
2023-04-08T10:10:02.251Z,0.68
2023-04-08T10:15:21.978Z,0.70
2023-04-08T10:20:38.864Z,0.60
2023-04-08T10:25:43.467Z,0.60
2023-04-08T10:30:57.623Z,0.20
2023-04-08T10:36:17.809Z,0.43
2023-04-08T10:41:23.988Z,0.40
2023-04-08T10:46:29.096Z,0.30
2023-04-08T10:51:33.704Z,0.50
2023-04-08T10:56:35.884Z,0.45
2023-04-08T11:01:41.086Z,0.40
2023-04-08T11:06:43.596Z,0.50
2023-04-08T11:11:45.967Z,0.65
2023-04-08T11:16:47.529Z,0.55
2023-04-08T11:21:50.953Z,0.57
2023-04-08T11:26:52.521Z,0.35
2023-04-08T11:31:54.102Z,0.60
2023-04-08T11:36:56.898Z,0.82
2023-04-08T11:41:58.538Z,0.60
2023-04-08T11:47:02.129Z,0.50
2023-04-08T11:52:03.875Z,0.43
2023-04-08T11:57:06.205Z,0.50
2023-04-08T12:02:07.970Z,0.90
2023-04-08T12:07:10.833Z,0.50
2023-04-08T12:12:12.308Z,0.40
2023-04-08T12:17:13.799Z,0.60
2023-04-08T12:22:16.371Z,0.40
2023-04-08T12:27:17.894Z,0.50
2023-04-08T12:32:19.403Z,0.40
2023-04-08T12:37:21.034Z,0.65
2023-04-08T12:42:22.563Z,0.43
2023-04-08T12:47:25.647Z,0.50
2023-04-08T12:52:27.857Z,0.40
2023-04-08T12:57:29.504Z,0.80
2023-04-08T13:02:31.191Z,0.60
2023-04-08T13:07:32.707Z,0.40
2023-04-08T13:12:34.259Z,0.30
2023-04-08T13:17:36.145Z,0.43
2023-04-08T13:22:37.707Z,0.40
2023-04-08T13:27:39.181Z,0.50
2023-04-08T13:32:40.877Z,0.40
2023-04-08T13:37:42.376Z,0.30
2023-04-08T13:42:43.840Z,0.45
2023-04-08T13:47:45.459Z,0.38
2023-04-08T13:52:47.021Z,0.40
2023-04-08T13:57:48.488Z,0.30
2023-04-08T14:02:51.087Z,0.40
2023-04-08T14:07:52.741Z,0.30
2023-04-08T14:12:54.523Z,0.30
2023-04-08T14:17:56.124Z,0.30
2023-04-08T14:22:57.648Z,0.47
2023-04-08T14:27:59.138Z,0.40
2023-04-08T14:33:01.295Z,0.40
2023-04-08T14:38:02.810Z,0.38
2023-04-08T14:43:04.250Z,0.30
2023-04-08T14:48:06.572Z,0.35
2023-04-08T14:53:08.167Z,0.50
2023-04-08T14:58:09.715Z,0.40
2023-04-08T15:03:11.518Z,0.52
2023-04-08T15:08:13.608Z,0.40
2023-04-08T15:13:15.492Z,0.63
2023-04-08T15:18:16.968Z,0.40
2023-04-08T15:23:18.576Z,0.20
2023-04-08T15:28:20.052Z,0.30
2023-04-08T15:33:21.674Z,0.50
2023-04-08T15:38:23.167Z,0.57
2023-04-08T15:43:25.023Z,0.40
2023-04-08T15:48:26.542Z,0.50
2023-04-08T15:53:28.180Z,0.50
2023-04-08T15:58:29.831Z,0.45
2023-04-08T16:03:31.852Z,0.40
2023-04-08T16:08:34.550Z,0.30
2023-04-08T16:13:39.069Z,0.30
2023-04-08T16:18:41.980Z,0.40
2023-04-08T16:23:43.461Z,0.35
2023-04-08T16:28:44.917Z,0.73
2023-04-08T16:33:46.478Z,0.60
2023-04-08T16:38:47.949Z,0.50
2023-04-08T16:43:49.619Z,0.50
2023-04-08T16:48:51.627Z,0.60
2023-04-08T16:53:53.853Z,1.25
2023-04-08T16:58:58.097Z,0.90
2023-04-08T17:03:59.978Z,0.32
2023-04-08T17:09:01.993Z,0.50
2023-04-08T17:14:03.655Z,0.57
2023-04-08T17:19:05.627Z,0.80
2023-04-08T17:24:07.344Z,0.50
2023-04-08T17:29:10.080Z,0.50
2023-04-08T17:34:11.715Z,0.45
2023-04-08T17:39:13.674Z,0.57
2023-04-08T17:44:15.247Z,0.63
2023-04-08T17:49:16.910Z,0.30
2023-04-08T17:54:18.520Z,0.45
2023-04-08T17:59:20.028Z,0.50
2023-04-08T18:04:21.717Z,0.70
2023-04-08T18:09:23.272Z,0.50
2023-04-08T18:14:24.738Z,0.63
2023-04-08T18:19:26.627Z,0.52
2023-04-08T18:24:28.218Z,0.50
2023-04-08T18:29:29.752Z,0.60
2023-04-08T18:34:32.065Z,1.02
2023-04-08T18:39:33.538Z,0.73
2023-04-08T18:44:35.144Z,0.70
2023-04-08T18:49:38.639Z,0.82
2023-04-08T18:54:40.135Z,0.77
2023-04-08T18:59:41.659Z,1.10
2023-04-08T19:04:43.125Z,1.23
2023-04-08T19:09:44.758Z,1.65
2023-04-08T19:14:46.303Z,1.52
2023-04-08T19:19:47.790Z,2.03
2023-04-08T19:24:49.310Z,2.00
2023-04-08T19:29:51.099Z,2.58
2023-04-08T19:34:52.558Z,2.17
2023-04-08T19:39:54.343Z,1.83
2023-04-08T19:44:56.233Z,1.67
2023-04-08T19:49:58.351Z,2.30
2023-04-08T19:54:59.924Z,1.85
2023-04-08T20:00:01.602Z,2.45
2023-04-08T20:05:03.226Z,1.98
2023-04-08T20:10:04.987Z,1.98
2023-04-08T20:15:09.344Z,1.98
2023-04-08T20:20:15.148Z,1.80
2023-04-08T20:25:16.900Z,2.60
2023-04-08T20:30:18.524Z,2.75
2023-04-08T20:35:20.256Z,2.47
2023-04-08T20:40:21.771Z,2.50
2023-04-08T20:45:24.141Z,2.80
2023-04-08T20:50:28.484Z,2.28
2023-04-08T20:55:29.967Z,2.33
2023-04-08T21:00:31.675Z,2.20
2023-04-08T21:05:36.647Z,2.65
2023-04-08T21:10:38.182Z,2.92
2023-04-08T21:15:39.720Z,2.63
2023-04-08T21:20:41.322Z,4.60
2023-04-08T21:25:42.829Z,3.95
2023-04-08T21:30:44.299Z,2.80
2023-04-08T21:35:45.820Z,2.35
2023-04-08T21:40:47.292Z,2.53
2023-04-08T21:45:49.297Z,2.47
2023-04-08T21:50:50.916Z,2.20
2023-04-08T21:55:52.372Z,2.00
2023-04-08T22:00:53.964Z,1.92
2023-04-08T22:05:55.777Z,2.08
2023-04-08T22:10:57.219Z,2.40
2023-04-08T22:15:58.694Z,3.13
2023-04-08T22:21:00.146Z,2.28
2023-04-08T22:26:01.649Z,2.38
2023-04-08T22:31:03.217Z,2.25
2023-04-08T22:36:05.350Z,2.03
2023-04-08T22:41:06.814Z,2.75
2023-04-08T22:46:08.383Z,1.92
2023-04-08T22:51:10.220Z,2.10
2023-04-08T22:56:11.695Z,2.15
2023-04-08T23:01:14.419Z,1.98
2023-04-08T23:06:16.732Z,2.00
2023-04-08T23:11:18.212Z,1.77
2023-04-08T23:16:19.773Z,1.88
2023-04-08T23:21:21.260Z,1.65
2023-04-08T23:26:23.022Z,1.42
2023-04-08T23:31:24.551Z,1.90
2023-04-08T23:36:27.811Z,1.70
2023-04-08T23:41:29.339Z,1.98
2023-04-08T23:46:31.401Z,1.90
2023-04-08T23:51:32.942Z,1.60
2023-04-08T23:56:34.407Z,2.20
